Time;durP1;ratioP1;P1;durP2;ratioP2;P2;SDS_P1;SDS_P2;PMS_P1;PMS_P2;Temp;Humidity;BMP_temperature;BMP_pressure;BME280_temperature;BME280_humidity;BME280_pressure;Samples;Min_cycle;Max_cycle;Signal;HPM_P1;HPM_P2
2023/10/07 00:01:56;;;;;;;1999.90;999.90;;;;;;;;;;6215913;23;20029;-83
2023/10/07 00:04:22;;;;;;;1999.90;999.90;;;;;;;;;;6215903;23;20027;-83
2023/10/07 00:06:51;;;;;;;1999.90;999.90;;;;;;;;;;6216590;23;20016;-84
2023/10/07 00:09:22;;;;;;;1999.90;999.90;;;;;;;;;;6216758;23;20028;-83
2023/10/07 00:11:54;;;;;;;1999.90;999.90;;;;;;;;;;6216357;23;20408;-83
2023/10/07 00:15:04;;;;;;;1999.90;999.90;;;;;;;;;;6216607;23;20021;-83
2023/10/07 00:17:31;;;;;;;1999.90;999.90;;;;;;;;;;6216676;23;20071;-83
2023/10/07 00:19:57;;;;;;;1999.90;999.90;;;;;;;;;;6216613;23;20031;-83
2023/10/07 00:22:26;;;;;;;1999.90;999.90;;;;;;;;;;6216805;23;20027;-83
2023/10/07 00:24:52;;;;;;;1999.90;999.90;;;;;;;;;;6216886;23;20023;-83
2023/10/07 00:27:29;;;;;;;1999.90;999.90;;;;;;;;;;6216985;23;20023;-83
2023/10/07 00:29:59;;;;;;;1999.90;999.90;;;;;;;;;;6216521;23;20530;-83
2023/10/07 00:32:30;;;;;;;1999.90;999.90;;;;;;;;;;6217434;23;20076;-83
2023/10/07 00:34:59;;;;;;;1999.90;999.90;;;;;;;;;;6219416;23;20020;-83
2023/10/07 00:37:28;;;;;;;1999.90;999.90;;;;;;;;;;6219621;23;20054;-83
2023/10/07 00:39:54;;;;;;;1999.90;999.90;;;;;;;;;;6215336;23;20055;-83
2023/10/07 00:42:23;;;;;;;1999.90;999.90;;;;;;;;;;6216998;23;20470;-83
2023/10/07 00:44:53;;;;;;;1999.90;999.90;;;;;;;;;;6216929;23;20021;-83
2023/10/07 00:47:20;;;;;;;1999.90;999.90;;;;;;;;;;6216574;23;20025;-83
2023/10/07 00:49:57;;;;;;;1999.90;999.90;;;;;;;;;;6216514;23;20079;-83
2023/10/07 00:52:40;;;;;;;1999.90;999.90;;;;;;;;;;6216581;23;20021;-83
2023/10/07 00:55:18;;;;;;;1999.90;999.90;;;;;;;;;;6217016;23;20103;-82
2023/10/07 00:57:51;;;;;;;1999.90;999.90;;;;;;;;;;6216490;23;20016;-83
2023/10/07 01:00:42;;;;;;;1999.90;999.90;;;;;;;;;;6216544;23;20020;-83
2023/10/07 01:03:23;;;;;;;1999.90;999.90;;;;;;;;;;6212113;23;20882;-84
2023/10/07 01:06:10;;;;;;;1999.90;999.90;;;;;;;;;;6210633;23;20024;-81
2023/10/07 01:08:38;;;;;;;;;;;;;;;;;;6211391;23;20343;-80
2023/10/07 01:11:08;;;;;;;1999.90;999.90;;;;;;;;;;6211313;23;19926;-82
2023/10/07 01:13:44;;;;;;;1999.90;999.90;;;;;;;;;;6211054;23;20016;-81
2023/10/07 01:16:14;;;;;;;1999.90;999.90;;;;;;;;;;6210986;23;20024;-81
2023/10/07 01:18:41;;;;;;;1999.90;999.90;;;;;;;;;;6211498;23;20100;-81
2023/10/07 01:21:11;;;;;;;1999.90;999.90;;;;;;;;;;6211017;23;20024;-81
2023/10/07 01:23:44;;;;;;;1999.90;999.90;;;;;;;;;;6211226;23;20032;-81
2023/10/07 01:26:15;;;;;;;1999.90;999.90;;;;;;;;;;6211286;23;20095;-85
2023/10/07 01:28:43;;;;;;;1999.90;999.90;;;;;;;;;;6210967;23;20048;-81
2023/10/07 01:31:12;;;;;;;1999.90;999.90;;;;;;;;;;6211157;23;20119;-82
2023/10/07 01:33:40;;;;;;;1999.90;999.90;;;;;;;;;;6210699;23;20394;-81
2023/10/07 01:36:12;;;;;;;1999.90;999.90;;;;;;;;;;6211225;23;20024;-82
2023/10/07 01:38:44;;;;;;;1999.90;999.90;;;;;;;;;;6210970;23;20021;-83
2023/10/07 01:41:14;;;;;;;1999.90;999.90;;;;;;;;;;6210585;23;20026;-82
2023/10/07 01:43:41;;;;;;;1999.90;999.90;;;;;;;;;;6211169;23;20071;-83
2023/10/07 01:46:10;;;;;;;1999.90;999.90;;;;;;;;;;6210615;23;20040;-80
2023/10/07 01:48:37;;;;;;;1999.90;999.90;;;;;;;;;;6211315;23;20023;-81
2023/10/07 01:51:05;;;;;;;1999.90;999.90;;;;;;;;;;6211130;23;20028;-81
2023/10/07 01:53:32;;;;;;;1999.90;999.90;;;;;;;;;;6211175;23;20028;-82
2023/10/07 01:56:04;;;;;;;1999.90;999.90;;;;;;;;;;6210966;23;20029;-80
2023/10/07 01:58:31;;;;;;;1999.90;999.90;;;;;;;;;;6210521;23;20083;-81
2023/10/07 02:00:59;;;;;;;1999.90;999.90;;;;;;;;;;6210524;23;20035;-83
2023/10/07 02:03:26;;;;;;;1999.90;999.90;;;;;;;;;;6210692;23;20031;-81
2023/10/07 02:05:53;;;;;;;1999.90;999.90;;;;;;;;;;6211056;23;20048;-81
2023/10/07 02:08:22;;;;;;;1999.90;999.90;;;;;;;;;;6210489;23;20027;-84
2023/10/07 02:10:50;;;;;;;1999.90;999.90;;;;;;;;;;6211216;23;20431;-81
2023/10/07 02:13:20;;;;;;;1999.90;999.90;;;;;;;;;;6211223;23;20021;-81
2023/10/07 02:15:47;;;;;;;1999.90;999.90;;;;;;;;;;6211017;23;20025;-82
2023/10/07 02:18:15;;;;;;;1999.90;999.90;;;;;;;;;;6211192;23;20017;-82
2023/10/07 02:20:44;;;;;;;1999.90;999.90;;;;;;;;;;6210883;23;20021;-80
2023/10/07 02:23:13;;;;;;;1999.90;999.90;;;;;;;;;;6210656;23;20029;-82
2023/10/07 02:25:40;;;;;;;1999.90;999.90;;;;;;;;;;6210811;23;20483;-83
2023/10/07 02:28:07;;;;;;;1999.90;999.90;;;;;;;;;;6213152;23;20016;-81
2023/10/07 02:30:50;;;;;;;1999.90;999.90;;;;;;;;;;6213029;23;20021;-81
2023/10/07 02:33:17;;;;;;;1999.90;999.90;;;;;;;;;;6213058;23;20363;-80
2023/10/07 02:35:46;;;;;;;1999.90;999.90;;;;;;;;;;6212708;23;20017;-81
2023/10/07 02:38:23;;;;;;;1999.90;999.90;;;;;;;;;;6212317;23;20745;-80
2023/10/07 02:40:50;;;;;;;1999.90;999.90;;;;;;;;;;6212388;23;20352;-82
2023/10/07 02:43:16;;;;;;;1999.90;999.90;;;;;;;;;;6212354;23;20455;-82
2023/10/07 02:45:44;;;;;;;1999.90;999.90;;;;;;;;;;6212815;23;20017;-80
2023/10/07 02:48:11;;;;;;;1999.90;999.90;;;;;;;;;;6212805;23;20020;-82
2023/10/07 02:50:39;;;;;;;1999.90;999.90;;;;;;;;;;6212554;23;20328;-81
2023/10/07 02:53:12;;;;;;;1999.90;999.90;;;;;;;;;;6212631;23;20029;-81
2023/10/07 02:55:47;;;;;;;1999.90;999.90;;;;;;;;;;6213108;23;20329;-81
2023/10/07 02:58:24;;;;;;;1999.90;999.90;;;;;;;;;;6212614;23;20020;-83
2023/10/07 03:00:52;;;;;;;1999.90;999.90;;;;;;;;;;6211861;23;20028;-81
2023/10/07 03:03:32;;;;;;;1999.90;999.90;;;;;;;;;;6211691;23;20486;-82
2023/10/07 03:06:00;;;;;;;1999.90;999.90;;;;;;;;;;6212551;23;20021;-82
2023/10/07 03:08:40;;;;;;;1999.90;999.90;;;;;;;;;;6212795;23;20025;-81
2023/10/07 03:11:10;;;;;;;1999.90;999.90;;;;;;;;;;6212337;23;20024;-82
2023/10/07 03:13:38;;;;;;;1999.90;999.90;;;;;;;;;;6212268;23;20355;-80
2023/10/07 03:19:05;;;;;;;1999.90;999.90;;;;;;;;;;6211794;23;20016;-81
2023/10/07 03:21:54;;;;;;;1999.90;999.90;;;;;;;;;;6212188;23;20020;-82
2023/10/07 03:24:32;;;;;;;1999.90;999.90;;;;;;;;;;6212510;23;20024;-84
2023/10/07 03:27:05;;;;;;;1999.90;999.90;;;;;;;;;;6212802;23;20025;-81
2023/10/07 03:29:36;;;;;;;1999.90;999.90;;;;;;;;;;6212334;23;20028;-81
2023/10/07 03:32:07;;;;;;;1999.90;999.90;;;;;;;;;;6212256;23;20028;-80
2023/10/07 03:34:35;;;;;;;1999.90;999.90;;;;;;;;;;6212244;23;20066;-80
2023/10/07 03:37:14;;;;;;;1999.90;999.90;;;;;;;;;;6212442;23;20051;-85
2023/10/07 03:39:44;;;;;;;1999.90;999.90;;;;;;;;;;6212460;23;20045;-85
2023/10/07 03:42:14;;;;;;;1999.90;999.90;;;;;;;;;;6212169;23;20025;-84
2023/10/07 03:44:41;;;;;;;1999.90;999.90;;;;;;;;;;6212647;23;20103;-83
2023/10/07 03:47:10;;;;;;;1999.90;999.90;;;;;;;;;;6212461;23;20038;-80
2023/10/07 03:49:39;;;;;;;1999.90;999.90;;;;;;;;;;6211782;23;20047;-82
2023/10/07 03:52:08;;;;;;;1999.90;999.90;;;;;;;;;;6211815;23;20471;-83
2023/10/07 03:54:35;;;;;;;1999.90;999.90;;;;;;;;;;6211764;23;20020;-86
2023/10/07 03:57:01;;;;;;;1999.90;999.90;;;;;;;;;;6211039;23;20020;-81
2023/10/07 03:59:31;;;;;;;1999.90;999.90;;;;;;;;;;6211917;23;20021;-81
2023/10/07 04:01:58;;;;;;;1999.90;999.90;;;;;;;;;;6211689;23;20070;-84
2023/10/07 04:04:26;;;;;;;1999.90;999.90;;;;;;;;;;6211561;23;20028;-82
2023/10/07 04:06:52;;;;;;;1999.90;999.90;;;;;;;;;;6211604;23;20016;-81
2023/10/07 04:09:27;;;;;;;1999.90;999.90;;;;;;;;;;6211923;23;20021;-83
2023/10/07 04:11:53;;;;;;;1999.90;999.90;;;;;;;;;;6211587;23;20056;-82
2023/10/07 04:14:27;;;;;;;1999.90;999.90;;;;;;;;;;6211975;23;20028;-83
2023/10/07 04:16:55;;;;;;;1999.90;999.90;;;;;;;;;;6211463;23;20344;-81
2023/10/07 04:19:38;;;;;;;1999.90;999.90;;;;;;;;;;6211881;23;20364;-82
2023/10/07 04:22:08;;;;;;;1999.90;999.90;;;;;;;;;;6211662;23;20100;-83
2023/10/07 04:24:38;;;;;;;1999.90;999.90;;;;;;;;;;6211934;23;20024;-84
2023/10/07 04:27:06;;;;;;;1999.90;999.90;;;;;;;;;;6211595;23;20079;-80
2023/10/07 04:29:33;;;;;;;1999.90;999.90;;;;;;;;;;6211716;23;20021;-81
2023/10/07 04:32:05;;;;;;;1999.90;999.90;;;;;;;;;;6211806;23;20029;-82
2023/10/07 04:34:36;;;;;;;1999.90;999.90;;;;;;;;;;6211944;23;20300;-83
2023/10/07 04:37:11;;;;;;;1999.90;999.90;;;;;;;;;;6211774;23;20025;-81
2023/10/07 04:40:27;;;;;;;1999.90;999.90;;;;;;;;;;6211659;23;20017;-81
2023/10/07 04:42:36;;;;;;;1999.90;999.90;;;;;;;;;;6210638;23;20095;-82
2023/10/07 04:47:46;;;;;;;1999.90;999.90;;;;;;;;;;6211288;23;20028;-82
2023/10/07 04:50:15;;;;;;;1999.90;999.90;;;;;;;;;;6211040;23;20043;-81
2023/10/07 04:52:50;;;;;;;1999.90;999.90;;;;;;;;;;6211034;23;20029;-82
2023/10/07 04:55:25;;;;;;;1999.90;999.90;;;;;;;;;;6211348;23;20020;-84
2023/10/07 04:58:02;;;;;;;1999.90;999.90;;;;;;;;;;6210710;23;20020;-82
2023/10/07 05:00:37;;;;;;;1999.90;999.90;;;;;;;;;;6211077;23;20099;-82
2023/10/07 05:03:08;;;;;;;1999.90;999.90;;;;;;;;;;6210470;23;20640;-82
2023/10/07 05:05:35;;;;;;;1999.90;999.90;;;;;;;;;;6211203;23;20017;-81
2023/10/07 05:08:08;;;;;;;1999.90;999.90;;;;;;;;;;6210677;23;20486;-83
2023/10/07 05:10:38;;;;;;;1999.90;999.90;;;;;;;;;;6211416;23;20081;-82
2023/10/07 05:13:06;;;;;;;1999.90;999.90;;;;;;;;;;6210644;23;20394;-81
2023/10/07 05:15:33;;;;;;;1999.90;999.90;;;;;;;;;;6211006;23;20055;-82
2023/10/07 05:18:01;;;;;;;1999.90;999.90;;;;;;;;;;6210997;23;20379;-83
2023/10/07 05:20:28;;;;;;;1999.90;999.90;;;;;;;;;;6211428;23;20100;-82
2023/10/07 05:22:55;;;;;;;1999.90;999.90;;;;;;;;;;6211561;23;20027;-83
2023/10/07 05:25:21;;;;;;;1999.90;999.90;;;;;;;;;;6210899;23;20024;-81
2023/10/07 05:27:51;;;;;;;1999.90;999.90;;;;;;;;;;6211045;23;20028;-82
2023/10/07 05:30:18;;;;;;;1999.90;999.90;;;;;;;;;;6211290;23;20051;-83
2023/10/07 05:32:46;;;;;;;1999.90;999.90;;;;;;;;;;6211203;23;20537;-82
2023/10/07 05:35:14;;;;;;;1999.90;999.90;;;;;;;;;;6211127;23;20021;-82
2023/10/07 05:37:42;;;;;;;1999.90;999.90;;;;;;;;;;6211134;23;20066;-85
2023/10/07 05:40:13;;;;;;;1999.90;999.90;;;;;;;;;;6210876;23;20095;-82
2023/10/07 05:42:40;;;;;;;1999.90;999.90;;;;;;;;;;6211081;23;20020;-81
2023/10/07 05:45:09;;;;;;;1999.90;999.90;;;;;;;;;;6210951;23;20021;-81
2023/10/07 05:47:36;;;;;;;1999.90;999.90;;;;;;;;;;6211156;23;20024;-80
2023/10/07 05:50:04;;;;;;;1999.90;999.90;;;;;;;;;;6210522;23;20038;-80
2023/10/07 05:52:31;;;;;;;1999.90;999.90;;;;;;;;;;6210792;23;20051;-80
2023/10/07 05:54:57;;;;;;;1999.90;999.90;;;;;;;;;;6210992;23;20039;-79
2023/10/07 05:57:25;;;;;;;1999.90;999.90;;;;;;;;;;6210712;23;20027;-79
2023/10/07 05:59:51;;;;;;;1999.90;999.90;;;;;;;;;;6210506;23;20074;-81
2023/10/07 06:02:19;;;;;;;1999.90;999.90;;;;;;;;;;6212391;23;20072;-80
2023/10/07 06:04:47;;;;;;;1999.90;999.90;;;;;;;;;;6213222;23;20052;-86
2023/10/07 06:07:14;;;;;;;1999.90;999.90;;;;;;;;;;6212493;23;20447;-79
2023/10/07 06:09:41;;;;;;;1999.90;999.90;;;;;;;;;;6213046;23;20358;-80
2023/10/07 06:12:09;;;;;;;1999.90;999.90;;;;;;;;;;6212654;23;20029;-80
2023/10/07 06:14:36;;;;;;;1999.90;999.90;;;;;;;;;;6213065;23;20085;-80
2023/10/07 06:17:06;;;;;;;1999.90;999.90;;;;;;;;;;6212401;23;20343;-80
2023/10/07 06:19:34;;;;;;;1999.90;999.90;;;;;;;;;;6212587;23;20027;-80
2023/10/07 06:22:11;;;;;;;1999.90;999.90;;;;;;;;;;6212373;23;20051;-81
2023/10/07 06:24:37;;;;;;;;;;;;;;;;;;6212872;23;20024;-80
2023/10/07 06:27:07;;;;;;;1999.90;999.90;;;;;;;;;;6212792;23;19955;-82
2023/10/07 06:29:33;;;;;;;1999.90;999.90;;;;;;;;;;6212652;23;20020;-82
2023/10/07 06:32:13;;;;;;;1999.90;999.90;;;;;;;;;;6213055;23;20024;-81
2023/10/07 06:34:41;;;;;;;1999.90;999.90;;;;;;;;;;6212935;23;20047;-80
2023/10/07 06:37:08;;;;;;;1999.90;999.90;;;;;;;;;;6212426;23;20025;-80
2023/10/07 06:39:34;;;;;;;1999.90;999.90;;;;;;;;;;6212786;23;20017;-80
2023/10/07 06:42:01;;;;;;;1999.90;999.90;;;;;;;;;;6212494;23;20379;-81
2023/10/07 06:44:27;;;;;;;1999.90;999.90;;;;;;;;;;6212637;23;20099;-80
2023/10/07 06:46:56;;;;;;;1999.90;999.90;;;;;;;;;;6212191;23;20030;-81
2023/10/07 06:49:23;;;;;;;1999.90;999.90;;;;;;;;;;6212459;23;20392;-81
2023/10/07 06:51:53;;;;;;;1999.90;999.90;;;;;;;;;;6212844;23;20024;-82
2023/10/07 06:54:20;;;;;;;1999.90;999.90;;;;;;;;;;6212176;23;20527;-81
2023/10/07 06:56:49;;;;;;;1999.90;999.90;;;;;;;;;;6212280;23;20020;-81
2023/10/07 06:59:16;;;;;;;1999.90;999.90;;;;;;;;;;6212503;23;20095;-81
2023/10/07 07:01:53;;;;;;;1999.90;999.90;;;;;;;;;;6212173;23;20052;-80
2023/10/07 07:04:22;;;;;;;1999.90;999.90;;;;;;;;;;6212112;23;20104;-81
2023/10/07 07:07:10;;;;;;;1999.90;999.90;;;;;;;;;;6212930;23;20017;-80
2023/10/07 07:09:50;;;;;;;1999.90;999.90;;;;;;;;;;6212768;23;20020;-82
2023/10/07 07:12:21;;;;;;;1999.90;999.90;;;;;;;;;;6212257;23;20024;-81
2023/10/07 07:14:50;;;;;;;1999.90;999.90;;;;;;;;;;6212243;23;20331;-82
2023/10/07 07:17:29;;;;;;;1999.90;999.90;;;;;;;;;;6212222;23;20048;-83
2023/10/07 07:22:42;;;;;;;1999.90;999.90;;;;;;;;;;6211894;23;20466;-82
2023/10/07 07:25:18;;;;;;;1999.90;999.90;;;;;;;;;;6213030;23;20016;-82
2023/10/07 07:27:48;;;;;;;1999.90;999.90;;;;;;;;;;6211785;23;20059;-84
2023/10/07 07:30:19;;;;;;;1999.90;999.90;;;;;;;;;;6211837;23;20028;-81
2023/10/07 07:32:47;;;;;;;1999.90;999.90;;;;;;;;;;6212302;23;20087;-83
2023/10/07 07:35:17;;;;;;;1999.90;999.90;;;;;;;;;;6212087;23;20021;-83
2023/10/07 07:37:45;;;;;;;1999.90;999.90;;;;;;;;;;6212314;23;20020;-82
2023/10/07 07:40:35;;;;;;;1999.90;999.90;;;;;;;;;;6212247;23;20450;-83
2023/10/07 07:42:59;;;;;;;1999.90;999.90;;;;;;;;;;6211865;23;20021;-81
2023/10/07 07:45:27;;;;;;;1999.90;999.90;;;;;;;;;;6212143;23;20126;-81
2023/10/07 07:47:53;;;;;;;1999.90;999.90;;;;;;;;;;6212282;23;20455;-84
2023/10/07 07:50:20;;;;;;;1999.90;999.90;;;;;;;;;;6213321;23;20021;-80
2023/10/07 07:52:49;;;;;;;1999.90;999.90;;;;;;;;;;6216971;23;20100;-80
2023/10/07 07:55:16;;;;;;;1999.90;999.90;;;;;;;;;;6215355;23;20025;-80
2023/10/07 07:57:44;;;;;;;1999.90;999.90;;;;;;;;;;6215654;23;20023;-80
2023/10/07 08:00:20;;;;;;;1999.90;999.90;;;;;;;;;;6214641;23;20023;-81
2023/10/07 08:02:48;;;;;;;;;;;;;;;;;;6214939;23;20059;-81
2023/10/07 08:05:16;;;;;;;1999.90;999.90;;;;;;;;;;6213500;23;19920;-82
2023/10/07 08:07:44;;;;;;;1999.90;999.90;;;;;;;;;;6213516;23;20017;-80
2023/10/07 08:10:12;;;;;;;1999.90;999.90;;;;;;;;;;6213924;23;20021;-81
2023/10/07 08:12:39;;;;;;;1999.90;999.90;;;;;;;;;;6213902;23;20103;-82
2023/10/07 08:15:21;;;;;;;1999.90;999.90;;;;;;;;;;6213396;23;20078;-84
2023/10/07 08:17:50;;;;;;;1999.90;999.90;;;;;;;;;;6213484;23;20029;-82
2023/10/07 08:20:27;;;;;;;1999.90;999.90;;;;;;;;;;6213880;23;20095;-83
2023/10/07 08:22:54;;;;;;;1999.90;999.90;;;;;;;;;;6214290;23;20035;-83
2023/10/07 08:25:37;;;;;;;1999.90;999.90;;;;;;;;;;6216161;23;20021;-81
2023/10/07 08:28:18;;;;;;;1999.90;999.90;;;;;;;;;;6215895;23;20025;-85
2023/10/07 08:30:46;;;;;;;1999.90;999.90;;;;;;;;;;6211452;23;20016;-83
2023/10/07 08:33:14;;;;;;;1999.90;999.90;;;;;;;;;;6211180;23;20032;-83
2023/10/07 08:35:43;;;;;;;1999.90;999.90;;;;;;;;;;6211521;23;20125;-84
2023/10/07 08:38:20;;;;;;;1999.90;999.90;;;;;;;;;;6211326;23;20459;-83
2023/10/07 08:40:56;;;;;;;1999.90;999.90;;;;;;;;;;6211959;23;20025;-81
2023/10/07 08:43:32;;;;;;;1999.90;999.90;;;;;;;;;;6211281;23;20052;-80
2023/10/07 08:46:01;;;;;;;1999.90;999.90;;;;;;;;;;6211171;23;20028;-83
2023/10/07 08:48:29;;;;;;;1999.90;999.90;;;;;;;;;;6211405;23;20367;-81
2023/10/07 08:50:58;;;;;;;1999.90;999.90;;;;;;;;;;6211077;23;20024;-83
2023/10/07 08:53:25;;;;;;;1999.90;999.90;;;;;;;;;;6211581;23;20095;-81
2023/10/07 08:55:54;;;;;;;1999.90;999.90;;;;;;;;;;6211431;23;20060;-80
2023/10/07 08:58:25;;;;;;;1999.90;999.90;;;;;;;;;;6211118;23;20095;-81
2023/10/07 09:00:53;;;;;;;1999.90;999.90;;;;;;;;;;6211004;23;20471;-80
2023/10/07 09:03:26;;;;;;;1999.90;999.90;;;;;;;;;;6211221;23;20108;-81
2023/10/07 09:05:54;;;;;;;1999.90;999.90;;;;;;;;;;6211185;23;20035;-80
2023/10/07 09:08:22;;;;;;;1999.90;999.90;;;;;;;;;;6211683;23;20025;-80
2023/10/07 09:10:49;;;;;;;1999.90;999.90;;;;;;;;;;6211953;23;20027;-81
2023/10/07 09:13:27;;;;;;;1999.90;999.90;;;;;;;;;;6211418;23;20056;-81
2023/10/07 09:15:54;;;;;;;1999.90;999.90;;;;;;;;;;6211000;23;20024;-85
2023/10/07 09:18:28;;;;;;;1999.90;999.90;;;;;;;;;;6211065;23;20020;-83
2023/10/07 09:20:56;;;;;;;1999.90;999.90;;;;;;;;;;6211168;23;20036;-81
2023/10/07 09:23:33;;;;;;;1999.90;999.90;;;;;;;;;;6211061;23;20032;-87
2023/10/07 09:26:14;;;;;;;1999.90;999.90;;;;;;;;;;6210572;23;20021;-84
2023/10/07 09:28:46;;;;;;;1999.90;999.90;;;;;;;;;;6210707;23;20016;-82
2023/10/07 09:31:15;;;;;;;1999.90;999.90;;;;;;;;;;6210222;23;20078;-81
2023/10/07 09:33:45;;;;;;;1999.90;999.90;;;;;;;;;;6210503;23;20029;-81
2023/10/07 09:36:33;;;;;;;1999.90;999.90;;;;;;;;;;6211132;23;20258;-81
2023/10/07 09:39:16;;;;;;;1999.90;999.90;;;;;;;;;;6211090;23;20025;-83
2023/10/07 09:41:44;;;;;;;1999.90;999.90;;;;;;;;;;6210854;23;20021;-81
2023/10/07 09:44:26;;;;;;;1999.90;999.90;;;;;;;;;;6210384;23;20017;-83
2023/10/07 09:46:53;;;;;;;1999.90;999.90;;;;;;;;;;6209124;23;20052;-81
2023/10/07 09:49:20;;;;;;;1999.90;999.90;;;;;;;;;;6210322;23;20024;-83
2023/10/07 09:51:50;;;;;;;1999.90;999.90;;;;;;;;;;6210248;23;20071;-83
2023/10/07 09:54:36;;;;;;;1999.90;999.90;;;;;;;;;;6209802;23;20025;-82
2023/10/07 09:57:19;;;;;;;1999.90;999.90;;;;;;;;;;6209823;23;20467;-85
2023/10/07 10:00:00;;;;;;;1999.90;999.90;;;;;;;;;;6210671;23;20337;-80
2023/10/07 10:02:44;;;;;;;1999.90;999.90;;;;;;;;;;6208409;23;20426;-81
2023/10/07 10:05:26;;;;;;;1999.90;999.90;;;;;;;;;;6210268;23;20024;-82
2023/10/07 10:08:20;;;;;;;1999.90;999.90;;;;;;;;;;6210079;23;20652;-81
2023/10/07 10:10:49;;;;;;;1999.90;999.90;;;;;;;;;;6209315;23;20021;-83
2023/10/07 10:13:51;;;;;;;1999.90;999.90;;;;;;;;;;6210813;23;20060;-81
2023/10/07 10:16:28;;;;;;;1999.90;999.90;;;;;;;;;;6209751;23;20025;-83
2023/10/07 10:19:12;;;;;;;1999.90;999.90;;;;;;;;;;6210415;23;20074;-80
2023/10/07 10:21:38;;;;;;;1999.90;999.90;;;;;;;;;;6210581;23;20024;-82
2023/10/07 10:24:05;;;;;;;1999.90;999.90;;;;;;;;;;6210998;23;20031;-82
2023/10/07 10:26:34;;;;;;;1999.90;999.90;;;;;;;;;;6210802;23;20096;-83
2023/10/07 10:29:04;;;;;;;1999.90;999.90;;;;;;;;;;6210767;23;20025;-81
2023/10/07 10:31:33;;;;;;;1999.90;999.90;;;;;;;;;;6210871;23;20021;-82
2023/10/07 10:34:04;;;;;;;1999.90;999.90;;;;;;;;;;6210639;23;20028;-82
2023/10/07 10:36:31;;;;;;;1999.90;999.90;;;;;;;;;;6210701;23;20128;-81
2023/10/07 10:39:00;;;;;;;1999.90;999.90;;;;;;;;;;6211083;23;20017;-81
2023/10/07 10:41:28;;;;;;;1999.90;999.90;;;;;;;;;;6210736;23;20021;-81
2023/10/07 10:44:06;;;;;;;1999.90;999.90;;;;;;;;;;6210647;23;20451;-81
2023/10/07 10:46:46;;;;;;;1999.90;999.90;;;;;;;;;;6211448;23;20078;-82
2023/10/07 10:49:13;;;;;;;1999.90;999.90;;;;;;;;;;6212868;23;20358;-80
2023/10/07 10:51:47;;;;;;;1999.90;999.90;;;;;;;;;;6212887;23;20020;-81
2023/10/07 10:54:18;;;;;;;1999.90;999.90;;;;;;;;;;6212675;23;20031;-81
2023/10/07 10:56:47;;;;;;;1999.90;999.90;;;;;;;;;;6212284;23;20470;-80
2023/10/07 10:59:14;;;;;;;1999.90;999.90;;;;;;;;;;6212289;23;20021;-81
2023/10/07 11:01:44;;;;;;;1999.90;999.90;;;;;;;;;;6212717;23;20042;-83
2023/10/07 11:04:13;;;;;;;1999.90;999.90;;;;;;;;;;6212255;23;20047;-82
2023/10/07 11:06:40;;;;;;;1999.90;999.90;;;;;;;;;;6212196;23;20027;-81
2023/10/07 11:09:09;;;;;;;1999.90;999.90;;;;;;;;;;6212459;23;20027;-83
2023/10/07 11:11:35;;;;;;;1999.90;999.90;;;;;;;;;;6212617;23;20052;-80
2023/10/07 11:14:07;;;;;;;1999.90;999.90;;;;;;;;;;6211781;23;20030;-82
2023/10/07 11:16:45;;;;;;;1999.90;999.90;;;;;;;;;;6212317;23;20025;-82
2023/10/07 11:19:12;;;;;;;1999.90;999.90;;;;;;;;;;6212184;23;20024;-83
2023/10/07 11:21:41;;;;;;;1999.90;999.90;;;;;;;;;;6211589;23;20052;-80
2023/10/07 11:24:08;;;;;;;1999.90;999.90;;;;;;;;;;6212194;23;20055;-83
2023/10/07 11:26:36;;;;;;;1999.90;999.90;;;;;;;;;;6212240;23;20075;-81
2023/10/07 11:29:11;;;;;;;1999.90;999.90;;;;;;;;;;6211688;23;20021;-81
2023/10/07 11:31:38;;;;;;;;;;;;;;;;;;6212352;23;20486;-81
2023/10/07 11:34:07;;;;;;;1999.90;999.90;;;;;;;;;;6211954;23;19916;-81
2023/10/07 11:36:46;;;;;;;1999.90;999.90;;;;;;;;;;6211881;23;20087;-82
2023/10/07 11:39:14;;;;;;;1999.90;999.90;;;;;;;;;;6211516;23;20020;-81
2023/10/07 11:41:43;;;;;;;1999.90;999.90;;;;;;;;;;6211864;23;20470;-79
2023/10/07 11:44:10;;;;;;;1999.90;999.90;;;;;;;;;;6211530;23;20104;-82
2023/10/07 11:46:38;;;;;;;1999.90;999.90;;;;;;;;;;6211614;23;20027;-81
2023/10/07 11:49:06;;;;;;;1999.90;999.90;;;;;;;;;;6211740;23;20443;-82
2023/10/07 11:51:33;;;;;;;1999.90;999.90;;;;;;;;;;6212130;23;20027;-80
2023/10/07 11:54:00;;;;;;;1999.90;999.90;;;;;;;;;;6211777;23;20024;-80
2023/10/07 11:56:27;;;;;;;1999.90;999.90;;;;;;;;;;6211694;23;20352;-81
2023/10/07 11:58:54;;;;;;;1999.90;999.90;;;;;;;;;;6210519;23;20024;-80
2023/10/07 12:01:23;;;;;;;1999.90;999.90;;;;;;;;;;6211745;23;20079;-82
2023/10/07 12:03:49;;;;;;;1999.90;999.90;;;;;;;;;;6211562;23;20024;-81
2023/10/07 12:06:18;;;;;;;1999.90;999.90;;;;;;;;;;6211808;23;20020;-83
2023/10/07 12:08:45;;;;;;;1999.90;999.90;;;;;;;;;;6211786;23;20048;-80
2023/10/07 12:11:11;;;;;;;1999.90;999.90;;;;;;;;;;6211777;23;20128;-83
2023/10/07 12:13:40;;;;;;;1999.90;999.90;;;;;;;;;;6211721;23;20028;-81
2023/10/07 12:16:07;;;;;;;1999.90;999.90;;;;;;;;;;6211612;23;20171;-81
2023/10/07 12:18:33;;;;;;;1999.90;999.90;;;;;;;;;;6211184;23;20029;-81
2023/10/07 12:21:00;;;;;;;1999.90;999.90;;;;;;;;;;6211500;23;20048;-84
2023/10/07 12:23:28;;;;;;;1999.90;999.90;;;;;;;;;;6211444;23;20025;-81
2023/10/07 12:25:55;;;;;;;1999.90;999.90;;;;;;;;;;6211905;23;20030;-80
2023/10/07 12:28:21;;;;;;;1999.90;999.90;;;;;;;;;;6210869;23;20052;-80
2023/10/07 12:30:49;;;;;;;1999.90;999.90;;;;;;;;;;6211067;23;20096;-81
2023/10/07 12:33:15;;;;;;;1999.90;999.90;;;;;;;;;;6211412;23;20482;-84
2023/10/07 12:35:43;;;;;;;1999.90;999.90;;;;;;;;;;6211197;23;20507;-81
2023/10/07 12:38:10;;;;;;;1999.90;999.90;;;;;;;;;;6211508;23;20016;-82
2023/10/07 12:40:41;;;;;;;1999.90;999.90;;;;;;;;;;6211587;23;20028;-82
2023/10/07 12:43:10;;;;;;;1999.90;999.90;;;;;;;;;;6211801;23;20070;-81
2023/10/07 12:45:37;;;;;;;1999.90;999.90;;;;;;;;;;6211489;23;20020;-84
2023/10/07 12:48:04;;;;;;;1999.90;999.90;;;;;;;;;;6212064;23;20082;-81
2023/10/07 12:50:32;;;;;;;1999.90;999.90;;;;;;;;;;6212385;23;20023;-84
2023/10/07 12:53:01;;;;;;;1999.90;999.90;;;;;;;;;;6211882;23;20044;-79
2023/10/07 12:55:31;;;;;;;1999.90;999.90;;;;;;;;;;6212464;23;20028;-80
2023/10/07 12:58:05;;;;;;;1999.90;999.90;;;;;;;;;;6212547;23;20023;-83
2023/10/07 13:00:33;;;;;;;1999.90;999.90;;;;;;;;;;6212031;23;20087;-81
2023/10/07 13:03:04;;;;;;;1999.90;999.90;;;;;;;;;;6211931;23;20020;-82
2023/10/07 13:05:33;;;;;;;1999.90;999.90;;;;;;;;;;6211559;23;20042;-80
2023/10/07 13:08:00;;;;;;;1999.90;999.90;;;;;;;;;;6211558;23;20466;-80
2023/10/07 13:10:27;;;;;;;1999.90;999.90;;;;;;;;;;6211878;23;20031;-81
2023/10/07 13:12:55;;;;;;;1999.90;999.90;;;;;;;;;;6211215;23;20451;-79
2023/10/07 13:15:30;;;;;;;1999.90;999.90;;;;;;;;;;6211223;23;20364;-80
2023/10/07 13:17:58;;;;;;;1999.90;999.90;;;;;;;;;;6211343;23;20100;-81
2023/10/07 13:20:27;;;;;;;1999.90;999.90;;;;;;;;;;6211834;23;20020;-80
2023/10/07 13:22:55;;;;;;;1999.90;999.90;;;;;;;;;;6210240;23;20047;-80
2023/10/07 13:25:21;;;;;;;1999.90;999.90;;;;;;;;;;6211581;23;20530;-82
2023/10/07 13:27:48;;;;;;;1999.90;999.90;;;;;;;;;;6211079;23;20055;-80
2023/10/07 13:30:16;;;;;;;1999.90;999.90;;;;;;;;;;6211016;23;20048;-80
2023/10/07 13:32:46;;;;;;;1999.90;999.90;;;;;;;;;;6211527;23;20020;-80
2023/10/07 13:35:14;;;;;;;1999.90;999.90;;;;;;;;;;6211408;23;20024;-80
2023/10/07 13:37:40;;;;;;;1999.90;999.90;;;;;;;;;;6211728;23;20021;-80
2023/10/07 13:40:10;;;;;;;1999.90;999.90;;;;;;;;;;6211043;23;20343;-81
2023/10/07 13:42:37;;;;;;;1999.90;999.90;;;;;;;;;;6211866;23;20063;-80
2023/10/07 13:45:08;;;;;;;1999.90;999.90;;;;;;;;;;6212523;23;20024;-80
2023/10/07 13:47:35;;;;;;;1999.90;999.90;;;;;;;;;;6211130;23;20357;-80
2023/10/07 13:50:10;;;;;;;1999.90;999.90;;;;;;;;;;6211736;23;20048;-80
2023/10/07 13:52:45;;;;;;;1999.90;999.90;;;;;;;;;;6211407;23;20099;-82
2023/10/07 13:55:22;;;;;;;1999.90;999.90;;;;;;;;;;6211360;23;20025;-80
2023/10/07 13:57:54;;;;;;;1999.90;999.90;;;;;;;;;;6211725;23;20259;-81
2023/10/07 14:00:35;;;;;;;1999.90;999.90;;;;;;;;;;6212419;23;20024;-81
2023/10/07 14:03:03;;;;;;;1999.90;999.90;;;;;;;;;;6211347;23;20027;-79
2023/10/07 14:05:36;;;;;;;1999.90;999.90;;;;;;;;;;6213370;23;20020;-79
2023/10/07 14:08:10;;;;;;;1999.90;999.90;;;;;;;;;;6213307;23;20496;-80
2023/10/07 14:10:38;;;;;;;1999.90;999.90;;;;;;;;;;6213491;23;20027;-80